createdAt,value
2018-08-22T00:00:28.675Z,1005.37
2018-08-22T00:01:28.648Z,1005.40
2018-08-22T00:02:28.625Z,1005.40
2018-08-22T00:03:28.598Z,1005.38
2018-08-22T00:04:28.570Z,1005.40
2018-08-22T00:05:28.549Z,1005.37
2018-08-22T00:06:28.520Z,1005.39
2018-08-22T00:07:28.500Z,1005.35
2018-08-22T00:08:28.472Z,1005.34
2018-08-22T00:09:28.452Z,1005.35
2018-08-22T00:10:28.429Z,1005.32
2018-08-22T00:11:28.402Z,1005.35
2018-08-22T00:12:28.375Z,1005.34
2018-08-22T00:13:28.436Z,1005.32
2018-08-22T00:14:28.338Z,1005.33
2018-08-22T00:15:28.308Z,1005.34
2018-08-22T00:16:28.277Z,1005.38
2018-08-22T00:17:28.261Z,1005.38
2018-08-22T00:18:28.235Z,1005.39
2018-08-22T00:19:28.211Z,1005.36
2018-08-22T00:20:28.181Z,1005.36
2018-08-22T00:21:28.154Z,1005.31
2018-08-22T00:22:28.200Z,1005.32
2018-08-22T00:23:28.111Z,1005.33
2018-08-22T00:24:28.088Z,1005.30
2018-08-22T00:25:28.127Z,1005.34
2018-08-22T00:26:28.035Z,1005.29
2018-08-22T00:27:28.017Z,1005.34
2018-08-22T00:28:27.993Z,1005.33
2018-08-22T00:29:27.968Z,1005.29
2018-08-22T00:30:27.939Z,1005.26
2018-08-22T00:31:27.912Z,1005.26
2018-08-22T00:32:27.897Z,1005.25
2018-08-22T00:33:27.869Z,1005.27
2018-08-22T00:34:27.849Z,1005.30
2018-08-22T00:35:27.821Z,1005.28
2018-08-22T00:36:27.798Z,1005.29
2018-08-22T00:37:27.775Z,1005.28
2018-08-22T00:38:27.743Z,1005.27
2018-08-22T00:39:27.726Z,1005.24
2018-08-22T00:40:27.699Z,1005.21
2018-08-22T00:41:27.675Z,1005.23
2018-08-22T00:42:27.656Z,1005.23
2018-08-22T00:43:27.631Z,1005.25
2018-08-22T00:44:27.601Z,1005.25
2018-08-22T00:45:27.584Z,1005.21
2018-08-22T00:46:27.547Z,1005.21
2018-08-22T00:47:28.490Z,1005.20
2018-08-22T00:48:27.510Z,1005.20
2018-08-22T00:49:27.479Z,1005.20
2018-08-22T00:50:27.457Z,1005.19
2018-08-22T00:51:27.435Z,1005.19
2018-08-22T00:52:27.409Z,1005.17
2018-08-22T00:53:27.379Z,1005.18
2018-08-22T00:54:27.357Z,1005.13
2018-08-22T00:55:27.338Z,1005.13
2018-08-22T00:56:27.308Z,1005.12
2018-08-22T00:57:27.281Z,1005.13
2018-08-22T00:58:27.267Z,1005.18
2018-08-22T00:59:27.237Z,1005.14
2018-08-22T01:00:27.211Z,1005.13
2018-08-22T01:01:27.193Z,1005.13
2018-08-22T01:02:27.167Z,1005.17
2018-08-22T01:03:27.144Z,1005.13
2018-08-22T01:04:27.119Z,1005.12
2018-08-22T01:05:27.088Z,1005.12
2018-08-22T01:06:27.069Z,1005.13
2018-08-22T01:07:27.042Z,1005.14
2018-08-22T01:08:27.019Z,1005.16
2018-08-22T01:09:26.998Z,1005.14
2018-08-22T01:10:26.975Z,1005.14
2018-08-22T01:11:26.945Z,1005.12
2018-08-22T01:12:26.930Z,1005.11
2018-08-22T01:13:26.893Z,1005.07
2018-08-22T01:14:26.876Z,1005.09
2018-08-22T01:15:26.843Z,1005.07
2018-08-22T01:16:26.821Z,1005.07
2018-08-22T01:17:26.807Z,1005.02
2018-08-22T01:18:26.769Z,1005.05
2018-08-22T01:19:26.761Z,1005.04
2018-08-22T01:20:26.728Z,1005.08
2018-08-22T01:21:26.700Z,1005.05
2018-08-22T01:22:26.681Z,1005.04
2018-08-22T01:23:26.651Z,1005.05
2018-08-22T01:24:26.626Z,1005.09
2018-08-22T01:25:26.609Z,1005.09
2018-08-22T01:26:26.581Z,1005.11
2018-08-22T01:27:26.560Z,1005.09
2018-08-22T01:28:26.532Z,1005.09
2018-08-22T01:29:26.505Z,1005.07
2018-08-22T01:30:26.490Z,1005.12
2018-08-22T01:31:26.457Z,1005.10
2018-08-22T01:32:26.432Z,1005.09
2018-08-22T01:33:26.412Z,1005.09
2018-08-22T01:34:26.383Z,1005.10
2018-08-22T01:35:26.365Z,1005.08
2018-08-22T01:36:26.343Z,1005.10
2018-08-22T01:37:26.314Z,1005.10
2018-08-22T01:38:26.284Z,1005.06
2018-08-22T01:39:26.269Z,1005.07
2018-08-22T01:40:26.239Z,1005.04
2018-08-22T01:41:26.217Z,1005.06
2018-08-22T01:42:26.196Z,1005.06
2018-08-22T01:43:26.169Z,1005.07
2018-08-22T01:44:26.144Z,1005.03
2018-08-22T01:45:26.121Z,1005.02
2018-08-22T01:46:26.094Z,1005.04
2018-08-22T01:47:26.071Z,1005.03
2018-08-22T01:48:26.050Z,1005.01
2018-08-22T01:49:26.021Z,1005.01
2018-08-22T01:50:25.998Z,1005.00
2018-08-22T01:51:25.971Z,1004.98
2018-08-22T01:52:25.951Z,1005.09
2018-08-22T01:53:25.924Z,1005.05
2018-08-22T01:54:25.898Z,1005.05
2018-08-22T01:55:25.877Z,1005.05
2018-08-22T01:56:25.850Z,1005.01
2018-08-22T01:57:25.832Z,1005.01
2018-08-22T01:58:25.804Z,1005.01
2018-08-22T01:59:25.778Z,1004.98
2018-08-22T02:00:25.751Z,1004.98
2018-08-22T02:01:25.735Z,1005.00
2018-08-22T02:02:25.706Z,1005.00
2018-08-22T02:03:25.682Z,1005.00
2018-08-22T02:04:25.659Z,1004.98
2018-08-22T02:05:26.506Z,1004.99
2018-08-22T02:06:25.606Z,1004.99
2018-08-22T02:07:25.587Z,1004.97
2018-08-22T02:08:25.555Z,1004.95
2018-08-22T02:09:25.531Z,1004.92
2018-08-22T02:10:25.519Z,1004.90
2018-08-22T02:11:25.484Z,1004.91
2018-08-22T02:12:25.465Z,1004.89
2018-08-22T02:13:25.436Z,1004.92
2018-08-22T02:14:25.417Z,1004.92
2018-08-22T02:15:25.392Z,1004.93
2018-08-22T02:16:25.366Z,1004.95
2018-08-22T02:17:25.337Z,1004.93
2018-08-22T02:18:25.314Z,1004.93
2018-08-22T02:19:25.304Z,1004.91
2018-08-22T02:20:25.265Z,1004.94
2018-08-22T02:21:25.237Z,1004.90
2018-08-22T02:22:25.214Z,1004.91
2018-08-22T02:23:25.196Z,1004.92
2018-08-22T02:24:25.170Z,1004.86
2018-08-22T02:25:25.145Z,1004.86
2018-08-22T02:26:25.128Z,1004.88
2018-08-22T02:27:25.092Z,1004.85
2018-08-22T02:28:25.068Z,1004.84
2018-08-22T02:29:25.051Z,1004.84
2018-08-22T02:30:25.023Z,1004.85
2018-08-22T02:31:24.995Z,1004.82
2018-08-22T02:32:24.973Z,1004.85
2018-08-22T02:33:24.946Z,1004.83
2018-08-22T02:34:24.921Z,1004.84
2018-08-22T02:35:24.906Z,1004.84
2018-08-22T02:36:24.879Z,1004.81
2018-08-22T02:37:24.848Z,1004.83
2018-08-22T02:38:24.825Z,1004.80
2018-08-22T02:39:24.804Z,1004.78
2018-08-22T02:40:24.778Z,1004.79
2018-08-22T02:41:24.755Z,1004.76
2018-08-22T02:42:24.723Z,1004.76
2018-08-22T02:43:24.707Z,1004.78
2018-08-22T02:44:24.675Z,1004.79
2018-08-22T02:45:24.655Z,1004.80
2018-08-22T02:46:24.633Z,1004.77
2018-08-22T02:47:24.600Z,1004.81
2018-08-22T02:48:24.583Z,1004.79
2018-08-22T02:49:24.551Z,1004.76
2018-08-22T02:50:24.532Z,1004.80
2018-08-22T02:51:24.508Z,1004.76
2018-08-22T02:52:24.477Z,1004.76
2018-08-22T02:53:24.461Z,1004.75
2018-08-22T02:54:24.436Z,1004.75
2018-08-22T02:55:24.407Z,1004.80
2018-08-22T02:56:24.395Z,1004.79
2018-08-22T02:57:24.385Z,1004.75
2018-08-22T02:58:24.334Z,1004.74
2018-08-22T02:59:24.313Z,1004.74
2018-08-22T03:00:24.281Z,1004.74
2018-08-22T03:01:24.270Z,1004.74
2018-08-22T03:02:24.244Z,1004.73
2018-08-22T03:03:24.210Z,1004.73
2018-08-22T03:04:24.188Z,1004.73
2018-08-22T03:05:24.158Z,1004.68
2018-08-22T03:06:24.135Z,1004.74
2018-08-22T03:07:24.120Z,1004.74
2018-08-22T03:08:24.088Z,1004.77
2018-08-22T03:09:24.071Z,1004.74
2018-08-22T03:10:24.044Z,1004.79
2018-08-22T03:11:24.012Z,1004.76
2018-08-22T03:12:23.987Z,1004.77
2018-08-22T03:13:23.966Z,1004.75
2018-08-22T03:14:23.943Z,1004.75
2018-08-22T03:15:23.917Z,1004.74
2018-08-22T03:16:23.900Z,1004.73
2018-08-22T03:17:23.865Z,1004.72
2018-08-22T03:18:23.851Z,1004.72
2018-08-22T03:19:23.820Z,1004.72
2018-08-22T03:20:23.801Z,1004.72
2018-08-22T03:21:23.771Z,1004.70
2018-08-22T03:22:23.750Z,1004.70
2018-08-22T03:23:23.721Z,1004.70
2018-08-22T03:24:23.697Z,1004.72
2018-08-22T03:25:23.673Z,1004.68
2018-08-22T03:26:23.649Z,1004.68
2018-08-22T03:27:23.625Z,1004.69
2018-08-22T03:28:23.605Z,1004.66
2018-08-22T03:29:23.576Z,1004.70
2018-08-22T03:30:23.555Z,1004.68
2018-08-22T03:31:23.524Z,1004.68
2018-08-22T03:32:23.503Z,1004.70
2018-08-22T03:33:23.483Z,1004.70
2018-08-22T03:34:23.457Z,1004.69
2018-08-22T03:35:23.426Z,1004.66
2018-08-22T03:36:23.402Z,1004.65
2018-08-22T03:37:23.384Z,1004.65
2018-08-22T03:38:23.355Z,1004.67
2018-08-22T03:39:23.332Z,1004.65
2018-08-22T03:40:23.307Z,1004.65
2018-08-22T03:41:23.282Z,1004.62
2018-08-22T03:42:23.262Z,1004.60
2018-08-22T03:43:23.231Z,1004.61
2018-08-22T03:44:23.206Z,1004.58
2018-08-22T03:45:23.186Z,1004.59
2018-08-22T03:46:23.157Z,1004.61
2018-08-22T03:47:23.129Z,1004.58
2018-08-22T03:48:23.111Z,1004.62
2018-08-22T03:49:23.097Z,1004.60
2018-08-22T03:50:23.062Z,1004.64
2018-08-22T03:51:23.035Z,1004.62
2018-08-22T03:52:23.008Z,1004.60
2018-08-22T03:53:23.026Z,1004.62
2018-08-22T03:54:22.960Z,1004.62
2018-08-22T03:55:22.942Z,1004.63
2018-08-22T03:56:22.918Z,1004.58
2018-08-22T03:57:22.888Z,1004.58
2018-08-22T03:58:22.871Z,1004.60
2018-08-22T03:59:22.837Z,1004.58
2018-08-22T04:00:22.813Z,1004.65
2018-08-22T04:01:22.796Z,1004.64
2018-08-22T04:02:22.768Z,1004.64
2018-08-22T04:03:22.746Z,1004.58
2018-08-22T04:04:22.720Z,1004.61
2018-08-22T04:05:22.694Z,1004.61
2018-08-22T04:06:22.667Z,1004.62
2018-08-22T04:07:22.647Z,1004.63
2018-08-22T04:08:22.618Z,1004.61
2018-08-22T04:09:22.597Z,1004.60
2018-08-22T04:10:22.577Z,1004.60
2018-08-22T04:11:22.543Z,1004.65
2018-08-22T04:12:22.522Z,1004.62
2018-08-22T04:13:22.496Z,1004.60
2018-08-22T04:14:22.471Z,1004.64
2018-08-22T04:15:22.453Z,1004.62
2018-08-22T04:16:22.426Z,1004.61
2018-08-22T04:17:22.396Z,1004.62
2018-08-22T04:18:22.385Z,1004.60
2018-08-22T04:19:22.350Z,1004.61
2018-08-22T04:20:22.318Z,1004.64
2018-08-22T04:21:22.303Z,1004.65
2018-08-22T04:22:22.272Z,1004.67
2018-08-22T04:23:22.250Z,1004.65
2018-08-22T04:24:22.220Z,1004.62
2018-08-22T04:25:22.208Z,1004.64
2018-08-22T04:26:22.181Z,1004.62
2018-08-22T04:27:22.151Z,1004.59
2018-08-22T04:28:22.133Z,1004.57
2018-08-22T04:29:22.099Z,1004.57
2018-08-22T04:30:22.076Z,1004.58
2018-08-22T04:31:22.054Z,1004.58
2018-08-22T04:32:22.024Z,1004.60
2018-08-22T04:33:22.002Z,1004.61
2018-08-22T04:34:21.978Z,1004.61
2018-08-22T04:35:21.959Z,1004.64
2018-08-22T04:36:21.928Z,1004.66
2018-08-22T04:37:21.933Z,1004.61
2018-08-22T04:38:21.879Z,1004.59
2018-08-22T04:39:21.853Z,1004.61
2018-08-22T04:40:21.830Z,1004.60
2018-08-22T04:41:21.808Z,1004.67
2018-08-22T04:42:21.797Z,1004.63
2018-08-22T04:43:21.761Z,1004.64
2018-08-22T04:44:21.747Z,1004.62
2018-08-22T04:45:21.706Z,1004.61
2018-08-22T04:46:21.679Z,1004.63
2018-08-22T04:47:21.664Z,1004.63
2018-08-22T04:48:21.639Z,1004.62
2018-08-22T04:49:21.611Z,1004.60
2018-08-22T04:50:21.589Z,1004.66
2018-08-22T04:51:21.561Z,1004.62
2018-08-22T04:52:21.539Z,1004.60
2018-08-22T04:53:21.507Z,1004.63
2018-08-22T04:54:21.485Z,1004.66
2018-08-22T04:55:21.465Z,1004.66
2018-08-22T04:56:21.434Z,1004.64
2018-08-22T04:57:21.415Z,1004.67
2018-08-22T04:58:21.382Z,1004.68
2018-08-22T04:59:21.371Z,1004.64
2018-08-22T05:00:21.340Z,1004.62
2018-08-22T05:01:21.308Z,1004.65
2018-08-22T05:02:21.297Z,1004.62
2018-08-22T05:03:21.261Z,1004.65
2018-08-22T05:04:21.242Z,1004.62
2018-08-22T05:05:21.222Z,1004.62
2018-08-22T05:06:21.184Z,1004.64
2018-08-22T05:07:21.168Z,1004.64
2018-08-22T05:08:21.144Z,1004.67
2018-08-22T05:09:21.112Z,1004.63
2018-08-22T05:10:21.092Z,1004.61
2018-08-22T05:11:21.063Z,1004.56
2018-08-22T05:12:21.038Z,1004.59
2018-08-22T05:13:21.020Z,1004.60
2018-08-22T05:14:20.997Z,1004.62
2018-08-22T05:15:20.963Z,1004.60
2018-08-22T05:16:20.945Z,1004.57
2018-08-22T05:17:20.916Z,1004.58
2018-08-22T05:18:20.887Z,1004.52
2018-08-22T05:19:20.875Z,1004.55
2018-08-22T05:20:20.847Z,1004.51
2018-08-22T05:21:20.823Z,1004.53
2018-08-22T05:22:20.800Z,1004.50
2018-08-22T05:23:20.769Z,1004.54
2018-08-22T05:24:20.747Z,1004.54
2018-08-22T05:25:20.721Z,1004.52
2018-08-22T05:26:20.696Z,1004.54
2018-08-22T05:27:20.677Z,1004.55
2018-08-22T05:28:20.644Z,1004.55
2018-08-22T05:29:20.630Z,1004.54
2018-08-22T05:30:20.599Z,1004.58
2018-08-22T05:31:20.570Z,1004.57
2018-08-22T05:32:20.555Z,1004.55
2018-08-22T05:33:20.523Z,1004.60
2018-08-22T05:34:20.502Z,1004.58
2018-08-22T05:35:20.475Z,1004.62
2018-08-22T05:36:20.444Z,1004.58
2018-08-22T05:37:20.423Z,1004.60
2018-08-22T05:38:20.399Z,1004.61
2018-08-22T05:39:20.385Z,1004.59
2018-08-22T05:40:20.350Z,1004.58
2018-08-22T05:41:20.328Z,1004.59
2018-08-22T05:42:20.300Z,1004.58
2018-08-22T05:43:20.280Z,1004.60
2018-08-22T05:44:20.251Z,1004.56
2018-08-22T05:45:20.229Z,1004.60
2018-08-22T05:46:20.206Z,1004.57
2018-08-22T05:47:20.175Z,1004.57
2018-08-22T05:48:20.157Z,1004.57
2018-08-22T05:49:20.128Z,1004.54
2018-08-22T05:50:20.102Z,1004.53
2018-08-22T05:51:20.085Z,1004.53
2018-08-22T05:52:20.053Z,1004.50
2018-08-22T05:53:20.033Z,1004.51
2018-08-22T05:54:20.005Z,1004.52
2018-08-22T05:55:19.979Z,1004.55
2018-08-22T05:56:19.960Z,1004.55
2018-08-22T05:57:19.936Z,1004.54
2018-08-22T05:58:19.909Z,1004.54
2018-08-22T05:59:19.881Z,1004.54
2018-08-22T06:00:19.853Z,1004.57
2018-08-22T06:01:19.837Z,1004.56
2018-08-22T06:02:19.806Z,1004.56
2018-08-22T06:03:19.805Z,1004.55
2018-08-22T06:04:19.765Z,1004.53
2018-08-22T06:05:19.731Z,1004.54
2018-08-22T06:06:19.716Z,1004.57
2018-08-22T06:07:19.683Z,1004.55
2018-08-22T06:08:19.660Z,1004.56
2018-08-22T06:09:19.645Z,1004.59
2018-08-22T06:10:19.610Z,1004.53
2018-08-22T06:11:19.587Z,1004.59
2018-08-22T06:12:19.570Z,1004.61
2018-08-22T06:13:19.535Z,1004.61
2018-08-22T06:14:19.519Z,1004.58
2018-08-22T06:15:19.489Z,1004.56
2018-08-22T06:16:19.464Z,1004.56
2018-08-22T06:17:19.443Z,1004.59
2018-08-22T06:18:19.415Z,1004.56
2018-08-22T06:19:19.393Z,1004.56
2018-08-22T06:20:19.366Z,1004.57
2018-08-22T06:21:19.341Z,1004.57
2018-08-22T06:22:19.318Z,1004.56
2018-08-22T06:23:19.291Z,1004.56
2018-08-22T06:24:19.277Z,1004.58
2018-08-22T06:25:19.242Z,1004.61
2018-08-22T06:26:19.218Z,1004.59
2018-08-22T06:27:19.197Z,1004.60
2018-08-22T06:28:19.166Z,1004.62
2018-08-22T06:29:19.152Z,1004.61
2018-08-22T06:30:19.124Z,1004.62
2018-08-22T06:31:19.096Z,1004.61
2018-08-22T06:32:19.080Z,1004.61
2018-08-22T06:33:19.047Z,1004.61
2018-08-22T06:34:19.050Z,1004.60
2018-08-22T06:35:19.005Z,1004.60
2018-08-22T06:36:19.023Z,1004.60
2018-08-22T06:37:18.951Z,1004.59
2018-08-22T06:38:18.932Z,1004.61
2018-08-22T06:39:18.898Z,1004.58
2018-08-22T06:40:18.877Z,1004.57
2018-08-22T06:41:18.849Z,1004.58
2018-08-22T06:42:18.830Z,1004.60
2018-08-22T06:43:18.807Z,1004.57
2018-08-22T06:44:18.838Z,1004.56
2018-08-22T06:45:18.757Z,1004.58
2018-08-22T06:46:18.742Z,1004.57
2018-08-22T06:47:18.701Z,1004.56
2018-08-22T06:48:18.683Z,1004.58
2018-08-22T06:49:18.656Z,1004.56
2018-08-22T06:50:18.733Z,1004.53
2018-08-22T06:51:18.608Z,1004.58
2018-08-22T06:52:18.577Z,1004.56
2018-08-22T06:53:18.561Z,1004.57
2018-08-22T06:54:18.565Z,1004.58
2018-08-22T06:55:18.508Z,1004.62
2018-08-22T06:56:18.488Z,1004.58
2018-08-22T06:57:18.462Z,1004.59
2018-08-22T06:58:18.438Z,1004.59
2018-08-22T06:59:18.414Z,1004.54
2018-08-22T07:00:18.382Z,1004.61
2018-08-22T07:01:18.406Z,1004.59
2018-08-22T07:02:18.333Z,1004.54
2018-08-22T07:03:18.320Z,1004.59
2018-08-22T07:04:18.288Z,1004.62
2018-08-22T07:05:18.275Z,1004.56
2018-08-22T07:06:18.238Z,1004.58
2018-08-22T07:07:18.220Z,1004.55
2018-08-22T07:08:18.200Z,1004.56
2018-08-22T07:09:18.166Z,1004.56
2018-08-22T07:10:18.147Z,1004.52
2018-08-22T07:11:18.118Z,1004.51
2018-08-22T07:12:18.095Z,1004.48
2018-08-22T07:13:18.070Z,1004.47
2018-08-22T07:14:18.048Z,1004.47
2018-08-22T07:15:18.019Z,1004.47
2018-08-22T07:16:18.014Z,1004.49
2018-08-22T07:17:17.974Z,1004.47
2018-08-22T07:18:17.952Z,1004.46
2018-08-22T07:19:17.924Z,1004.50
2018-08-22T07:20:17.901Z,1004.42
2018-08-22T07:21:17.875Z,1004.44
2018-08-22T07:22:17.849Z,1004.47
2018-08-22T07:23:17.827Z,1004.47
2018-08-22T07:24:17.803Z,1004.47
2018-08-22T07:25:17.776Z,1004.48
2018-08-22T07:26:17.770Z,1004.49
2018-08-22T07:27:17.733Z,1004.49
2018-08-22T07:28:17.702Z,1004.51
2018-08-22T07:29:17.681Z,1004.48
2018-08-22T07:30:17.659Z,1004.53
2018-08-22T07:31:17.629Z,1004.53
2018-08-22T07:32:17.612Z,1004.52
2018-08-22T07:33:17.581Z,1004.51
2018-08-22T07:34:17.554Z,1004.52
2018-08-22T07:35:17.539Z,1004.50
2018-08-22T07:36:17.511Z,1004.52
2018-08-22T07:37:17.495Z,1004.53
2018-08-22T07:38:17.465Z,1004.49
2018-08-22T07:39:17.445Z,1004.54
2018-08-22T07:40:17.411Z,1004.52
2018-08-22T07:41:17.401Z,1004.53
2018-08-22T07:42:17.372Z,1004.55
2018-08-22T07:43:17.346Z,1004.55
2018-08-22T07:44:17.313Z,1004.54
2018-08-22T07:45:17.297Z,1004.52
2018-08-22T07:46:17.263Z,1004.55
2018-08-22T07:47:17.249Z,1004.49
2018-08-22T07:48:17.225Z,1004.53
2018-08-22T07:49:17.191Z,1004.51
2018-08-22T07:50:17.215Z,1004.47
2018-08-22T07:51:17.143Z,1004.50
2018-08-22T07:52:17.127Z,1004.50
2018-08-22T07:53:17.140Z,1004.49
2018-08-22T07:54:17.105Z,1004.48
2018-08-22T07:55:17.051Z,1004.48
2018-08-22T07:56:17.021Z,1004.45
2018-08-22T07:57:17.010Z,1004.45
2018-08-22T07:58:16.981Z,1004.46
2018-08-22T07:59:16.953Z,1004.46
2018-08-22T08:00:17.007Z,1004.46
2018-08-22T08:01:16.908Z,1004.43
2018-08-22T08:02:16.878Z,1004.43
2018-08-22T08:03:16.860Z,1004.43
2018-08-22T08:04:16.837Z,1004.40
2018-08-22T08:05:16.806Z,1004.44
2018-08-22T08:06:16.793Z,1004.41
2018-08-22T08:07:16.756Z,1004.41
2018-08-22T08:08:16.739Z,1004.42
2018-08-22T08:09:16.716Z,1004.41
2018-08-22T08:10:16.693Z,1004.41
2018-08-22T08:11:16.661Z,1004.42
2018-08-22T08:12:16.642Z,1004.42
2018-08-22T08:13:16.616Z,1004.43
2018-08-22T08:14:16.589Z,1004.43
2018-08-22T08:15:16.577Z,1004.40
2018-08-22T08:16:16.563Z,1004.44
2018-08-22T08:17:16.602Z,1004.42
2018-08-22T08:18:16.497Z,1004.42
2018-08-22T08:19:16.478Z,1004.45
2018-08-22T08:20:16.444Z,1004.46
2018-08-22T08:21:16.431Z,1004.41
2018-08-22T08:22:16.403Z,1004.45
2018-08-22T08:23:16.389Z,1004.40
2018-08-22T08:24:16.359Z,1004.44
2018-08-22T08:25:16.334Z,1004.45
2018-08-22T08:26:16.367Z,1004.43
2018-08-22T08:27:16.284Z,1004.44
2018-08-22T08:28:16.265Z,1004.45
2018-08-22T08:29:16.234Z,1004.46
2018-08-22T08:30:16.256Z,1004.45
2018-08-22T08:31:16.207Z,1004.45
2018-08-22T08:32:16.165Z,1004.43
2018-08-22T08:33:16.151Z,1004.42
2018-08-22T08:34:16.121Z,1004.37
2018-08-22T08:35:16.098Z,1004.41
2018-08-22T08:36:16.224Z,1004.43
2018-08-22T08:37:16.042Z,1004.44
2018-08-22T08:38:16.020Z,1004.40
2018-08-22T08:39:15.998Z,1004.43
2018-08-22T08:40:15.985Z,1004.41
2018-08-22T08:41:15.951Z,1004.35
2018-08-22T08:42:15.925Z,1004.40
2018-08-22T08:43:15.929Z,1004.39
2018-08-22T08:44:15.886Z,1004.40
2018-08-22T08:45:15.925Z,1004.41
2018-08-22T08:46:15.833Z,1004.41
2018-08-22T08:47:15.806Z,1004.42
2018-08-22T08:48:15.790Z,1004.38
2018-08-22T08:49:15.762Z,1004.37
2018-08-22T08:50:15.737Z,1004.32
2018-08-22T08:51:15.720Z,1004.34
2018-08-22T08:52:15.692Z,1004.29
2018-08-22T08:53:15.666Z,1004.26
2018-08-22T08:54:15.663Z,1004.29
2018-08-22T08:55:15.630Z,1004.29
2018-08-22T08:56:15.595Z,1004.28
2018-08-22T08:57:15.682Z,1004.25
2018-08-22T08:58:15.550Z,1004.25
2018-08-22T08:59:15.569Z,1004.27
2018-08-22T09:00:15.510Z,1004.26
2018-08-22T09:01:15.475Z,1004.27
2018-08-22T09:02:15.455Z,1004.22
2018-08-22T09:03:15.432Z,1004.23
2018-08-22T09:04:15.418Z,1004.21
2018-08-22T09:05:15.414Z,1004.21
2018-08-22T09:06:15.365Z,1004.20
2018-08-22T09:07:15.342Z,1004.21
2018-08-22T09:08:15.336Z,1004.22
2018-08-22T09:09:15.292Z,1004.19
2018-08-22T09:10:15.266Z,1004.18
2018-08-22T09:11:15.246Z,1004.22
2018-08-22T09:12:15.274Z,1004.18
2018-08-22T09:13:15.200Z,1004.16
2018-08-22T09:14:15.180Z,1004.19
2018-08-22T09:15:15.146Z,1004.17
2018-08-22T09:16:15.180Z,1004.21
2018-08-22T09:17:15.153Z,1004.19
2018-08-22T09:18:15.076Z,1004.20
2018-08-22T09:19:15.075Z,1004.19
2018-08-22T09:20:15.030Z,1004.15
2018-08-22T09:21:15.081Z,1004.15
2018-08-22T09:22:14.993Z,1004.12
2018-08-22T09:23:14.965Z,1004.12
2018-08-22T09:24:14.939Z,1004.10
2018-08-22T09:25:14.927Z,1004.11
2018-08-22T09:26:14.890Z,1004.10
2018-08-22T09:27:14.874Z,1004.10
2018-08-22T09:28:14.924Z,1004.10
2018-08-22T09:29:14.829Z,1004.09
2018-08-22T09:30:14.801Z,1004.09
2018-08-22T09:31:14.773Z,1004.06
2018-08-22T09:32:14.762Z,1004.06
2018-08-22T09:33:14.724Z,1004.07
2018-08-22T09:34:14.706Z,1004.05
2018-08-22T09:35:14.687Z,1004.03
2018-08-22T09:36:14.653Z,1004.03
2018-08-22T09:37:14.634Z,1004.04
2018-08-22T09:38:14.612Z,1004.04
2018-08-22T09:39:14.598Z,1004.03
2018-08-22T09:40:14.584Z,1004.03
2018-08-22T09:41:14.549Z,1004.01
2018-08-22T09:42:14.524Z,1004.04
2018-08-22T09:43:14.535Z,1004.01
2018-08-22T09:44:14.482Z,1004.00
2018-08-22T09:45:14.455Z,1004.04
2018-08-22T09:46:14.427Z,1003.98
2018-08-22T09:47:14.417Z,1004.02
2018-08-22T09:48:14.380Z,1003.99
2018-08-22T09:49:14.355Z,1004.02
2018-08-22T09:50:14.336Z,1004.02
2018-08-22T09:51:14.360Z,1003.98
2018-08-22T09:52:14.371Z,1004.03
2018-08-22T09:53:14.266Z,1004.01
2018-08-22T09:54:14.243Z,1003.98
2018-08-22T09:55:14.218Z,1003.99
2018-08-22T09:56:14.189Z,1003.99
2018-08-22T09:57:14.184Z,1003.93
2018-08-22T09:58:14.200Z,1003.96
2018-08-22T09:59:14.121Z,1003.95
2018-08-22T10:00:14.111Z,1003.95
2018-08-22T10:01:14.085Z,1003.98
2018-08-22T10:02:14.057Z,1003.95
2018-08-22T10:03:14.034Z,1003.95
2018-08-22T10:04:14.012Z,1003.90
2018-08-22T10:05:13.981Z,1003.90
2018-08-22T10:06:13.997Z,1003.91
2018-08-22T10:07:13.969Z,1003.90
2018-08-22T10:08:13.912Z,1003.91
2018-08-22T10:09:13.894Z,1003.92
2018-08-22T10:10:13.869Z,1003.91
2018-08-22T10:11:13.847Z,1003.89
2018-08-22T10:12:13.837Z,1003.93
2018-08-22T10:13:13.796Z,1003.91
2018-08-22T10:14:13.776Z,1003.90
2018-08-22T10:15:13.754Z,1003.89
2018-08-22T10:16:13.733Z,1003.81
2018-08-22T10:17:13.722Z,1003.81
2018-08-22T10:18:13.681Z,1003.87
2018-08-22T10:19:13.662Z,1003.83
2018-08-22T10:20:13.635Z,1003.82
2018-08-22T10:21:13.620Z,1003.78
2018-08-22T10:22:13.592Z,1003.75
2018-08-22T10:23:13.566Z,1003.82
2018-08-22T10:24:13.543Z,1003.81
2018-08-22T10:25:13.536Z,1003.81
2018-08-22T10:26:13.498Z,1003.82
2018-08-22T10:27:13.480Z,1003.82
2018-08-22T10:28:13.454Z,1003.82
2018-08-22T10:29:13.428Z,1003.85
2018-08-22T10:30:13.409Z,1003.82
2018-08-22T10:31:13.390Z,1003.86
2018-08-22T10:32:13.364Z,1003.82
2018-08-22T10:33:13.339Z,1003.86
2018-08-22T10:34:13.314Z,1003.83
2018-08-22T10:35:13.336Z,1003.87
2018-08-22T10:36:13.266Z,1003.81
2018-08-22T10:37:13.247Z,1003.81
2018-08-22T10:38:13.231Z,1003.82
2018-08-22T10:39:13.195Z,1003.79
2018-08-22T10:40:13.178Z,1003.78
2018-08-22T10:41:13.160Z,1003.76
2018-08-22T10:42:13.133Z,1003.72
2018-08-22T10:43:13.115Z,1003.72
2018-08-22T10:44:13.088Z,1003.67
2018-08-22T10:45:13.063Z,1003.72
2018-08-22T10:46:13.039Z,1003.69
2018-08-22T10:47:13.019Z,1003.69
2018-08-22T10:48:12.995Z,1003.66
2018-08-22T10:49:12.972Z,1003.67
2018-08-22T10:50:12.956Z,1003.64
2018-08-22T10:51:12.934Z,1003.66
2018-08-22T10:52:12.907Z,1003.65
2018-08-22T10:53:12.879Z,1003.65
2018-08-22T10:54:12.859Z,1003.65
2018-08-22T10:55:12.843Z,1003.63
2018-08-22T10:56:12.810Z,1003.62
2018-08-22T10:57:12.786Z,1003.63
2018-08-22T10:58:12.770Z,1003.69
2018-08-22T10:59:12.741Z,1003.62
2018-08-22T11:00:12.724Z,1003.57
2018-08-22T11:01:12.695Z,1003.66
2018-08-22T11:02:12.677Z,1003.61
2018-08-22T11:03:12.651Z,1003.57
2018-08-22T11:04:12.627Z,1003.57
2018-08-22T11:05:12.613Z,1003.58
2018-08-22T11:06:12.604Z,1003.57
2018-08-22T11:07:12.568Z,1003.59
2018-08-22T11:08:12.545Z,1003.58
2018-08-22T11:09:12.525Z,1003.52
2018-08-22T11:10:12.498Z,1003.56
2018-08-22T11:11:12.471Z,1003.47
2018-08-22T11:12:12.452Z,1003.50
2018-08-22T11:13:12.426Z,1003.50
2018-08-22T11:14:12.400Z,1003.44
2018-08-22T11:15:12.383Z,1003.42
2018-08-22T11:16:12.429Z,1003.44
2018-08-22T11:17:12.338Z,1003.45
2018-08-22T11:18:12.316Z,1003.42
2018-08-22T11:19:12.292Z,1003.41
2018-08-22T11:20:12.269Z,1003.41
2018-08-22T11:21:12.245Z,1003.42
2018-08-22T11:22:12.218Z,1003.41
2018-08-22T11:23:12.201Z,1003.37
2018-08-22T11:24:12.172Z,1003.37
2018-08-22T11:25:12.159Z,1003.37
2018-08-22T11:26:12.129Z,1003.32
2018-08-22T11:27:12.106Z,1003.37
2018-08-22T11:28:12.090Z,1003.41
2018-08-22T11:29:12.065Z,1003.35
2018-08-22T11:30:12.036Z,1003.38
2018-08-22T11:31:12.023Z,1003.39
2018-08-22T11:32:11.991Z,1003.42
2018-08-22T11:33:11.979Z,1003.39
2018-08-22T11:34:11.950Z,1003.41
2018-08-22T11:35:11.924Z,1003.41
2018-08-22T11:36:11.903Z,1003.41
2018-08-22T11:37:11.900Z,1003.41
2018-08-22T11:38:11.853Z,1003.40
2018-08-22T11:39:11.841Z,1003.41
2018-08-22T11:40:11.811Z,1003.46
2018-08-22T11:41:11.798Z,1003.44
2018-08-22T11:42:11.776Z,1003.48
2018-08-22T11:43:11.741Z,1003.43
2018-08-22T11:44:11.723Z,1003.44
2018-08-22T11:45:11.699Z,1003.39
2018-08-22T11:46:11.678Z,1003.45
2018-08-22T11:47:11.653Z,1003.45
2018-08-22T11:48:11.635Z,1003.40
2018-08-22T11:49:11.609Z,1003.38
2018-08-22T11:50:11.595Z,1003.38
2018-08-22T11:51:11.560Z,1003.44
2018-08-22T11:52:11.541Z,1003.47
2018-08-22T11:53:11.522Z,1003.43
2018-08-22T11:54:11.501Z,1003.38
2018-08-22T11:55:11.476Z,1003.40
2018-08-22T11:56:11.519Z,1003.43
2018-08-22T11:57:11.429Z,1003.46
2018-08-22T11:58:11.412Z,1003.37
2018-08-22T11:59:11.384Z,1003.41
2018-08-22T12:00:11.360Z,1003.39
2018-08-22T12:01:11.340Z,1003.41
2018-08-22T12:02:11.330Z,1003.36
2018-08-22T12:03:11.310Z,1003.33
2018-08-22T12:04:11.273Z,1003.35
2018-08-22T12:05:11.281Z,1003.34